sensor_id;sensor_type;location;lat;lon;timestamp;pressure;altitude;pressure_sealevel;temperature;humidity
59829;BME280;45708;51.848;107.620;2023-01-28T00:04:51;94423.72;;;-12.48;55.64
59829;BME280;45708;51.848;107.620;2023-01-28T00:09:52;94427.69;;;-12.44;56.35
59829;BME280;45708;51.848;107.620;2023-01-28T00:14:53;94402.66;;;-12.50;56.01
59829;BME280;45708;51.848;107.620;2023-01-28T00:19:53;94400.97;;;-12.37;55.70
59829;BME280;45708;51.848;107.620;2023-01-28T00:24:54;94395.25;;;-12.40;56.13
59829;BME280;45708;51.848;107.620;2023-01-28T00:29:55;94403.09;;;-12.31;56.69
59829;BME280;45708;51.848;107.620;2023-01-28T00:34:56;94429.63;;;-12.20;56.00
59829;BME280;45708;51.848;107.620;2023-01-28T00:39:57;94435.22;;;-12.15;55.87
59829;BME280;45708;51.848;107.620;2023-01-28T00:44:57;94420.16;;;-12.18;56.25
59829;BME280;45708;51.848;107.620;2023-01-28T00:49:58;94427.38;;;-12.12;56.35
59829;BME280;45708;51.848;107.620;2023-01-28T00:54:59;94445.91;;;-12.10;56.65
59829;BME280;45708;51.848;107.620;2023-01-28T01:00:00;94426.16;;;-12.19;56.15
59829;BME280;45708;51.848;107.620;2023-01-28T01:05:01;94432.47;;;-12.12;56.07
59829;BME280;45708;51.848;107.620;2023-01-28T01:10:02;94426.75;;;-12.16;56.00
59829;BME280;45708;51.848;107.620;2023-01-28T01:15:04;94435.16;;;-12.01;55.92
59829;BME280;45708;51.848;107.620;2023-01-28T01:20:07;94448.38;;;-11.96;56.10
59829;BME280;45708;51.848;107.620;2023-01-28T01:25:08;94421.69;;;-11.90;55.34
59829;BME280;45708;51.848;107.620;2023-01-28T01:30:10;94446.34;;;-11.91;56.30
59829;BME280;45708;51.848;107.620;2023-01-28T01:35:11;94449.59;;;-11.89;56.00
59829;BME280;45708;51.848;107.620;2023-01-28T01:40:12;94453.06;;;-11.90;56.70
59829;BME280;45708;51.848;107.620;2023-01-28T01:45:13;94445.13;;;-11.98;55.88
59829;BME280;45708;51.848;107.620;2023-01-28T01:50:28;94446.16;;;-11.88;55.92
59829;BME280;45708;51.848;107.620;2023-01-28T01:55:33;94429.13;;;-11.75;56.68
59829;BME280;45708;51.848;107.620;2023-01-28T02:00:35;94413.94;;;-11.38;56.40
59829;BME280;45708;51.848;107.620;2023-01-28T02:05:36;94411.88;;;-11.33;56.36
59829;BME280;45708;51.848;107.620;2023-01-28T02:10:38;94398.34;;;-11.10;56.15
59829;BME280;45708;51.848;107.620;2023-01-28T02:15:39;94410.31;;;-10.86;55.06
59829;BME280;45708;51.848;107.620;2023-01-28T02:21:08;94418.47;;;-10.81;54.71
59829;BME280;45708;51.848;107.620;2023-01-28T02:31:53;94414.69;;;-10.52;54.47
59829;BME280;45708;51.848;107.620;2023-01-28T02:42:29;94421.72;;;-9.96;55.50
59829;BME280;45708;51.848;107.620;2023-01-28T02:47:32;94422.09;;;-9.90;53.92
59829;BME280;45708;51.848;107.620;2023-01-28T03:03:34;94438.94;;;-9.18;54.86
59829;BME280;45708;51.848;107.620;2023-01-28T03:08:46;94433.91;;;-8.75;53.71
59829;BME280;45708;51.848;107.620;2023-01-28T03:13:48;94435.63;;;-8.65;54.11
59829;BME280;45708;51.848;107.620;2023-01-28T03:18:51;94448.84;;;-8.37;53.93
59829;BME280;45708;51.848;107.620;2023-01-28T03:28:58;94421.94;;;-8.11;52.99
59829;BME280;45708;51.848;107.620;2023-01-28T03:34:03;94437.31;;;-8.11;53.16
59829;BME280;45708;51.848;107.620;2023-01-28T03:39:04;94427.97;;;-8.01;52.88
59829;BME280;45708;51.848;107.620;2023-01-28T03:44:05;94434.22;;;-7.93;53.40
59829;BME280;45708;51.848;107.620;2023-01-28T03:49:06;94429.28;;;-7.64;52.83
59829;BME280;45708;51.848;107.620;2023-01-28T03:54:07;94424.84;;;-7.62;53.08
59829;BME280;45708;51.848;107.620;2023-01-28T03:59:07;94420.97;;;-7.99;53.22
59829;BME280;45708;51.848;107.620;2023-01-28T04:04:08;94422.22;;;-7.72;52.82
59829;BME280;45708;51.848;107.620;2023-01-28T04:09:09;94425.03;;;-7.54;52.56
59829;BME280;45708;51.848;107.620;2023-01-28T04:14:10;94438.28;;;-7.49;52.02
59829;BME280;45708;51.848;107.620;2023-01-28T04:19:11;94417.03;;;-7.40;52.77
59829;BME280;45708;51.848;107.620;2023-01-28T04:24:12;94403.25;;;-7.39;51.66
59829;BME280;45708;51.848;107.620;2023-01-28T04:29:13;94415.16;;;-7.59;51.88
59829;BME280;45708;51.848;107.620;2023-01-28T04:34:14;94402.13;;;-7.67;52.18
59829;BME280;45708;51.848;107.620;2023-01-28T04:39:15;94408.28;;;-7.58;52.93
59829;BME280;45708;51.848;107.620;2023-01-28T04:44:16;94394.03;;;-7.42;52.96
59829;BME280;45708;51.848;107.620;2023-01-28T04:49:17;94394.13;;;-7.22;52.55
59829;BME280;45708;51.848;107.620;2023-01-28T04:54:18;94393.78;;;-7.08;52.97
59829;BME280;45708;51.848;107.620;2023-01-28T04:59:18;94402.34;;;-6.98;53.42
59829;BME280;45708;51.848;107.620;2023-01-28T05:04:19;94394.91;;;-6.51;53.29
59829;BME280;45708;51.848;107.620;2023-01-28T05:09:20;94386.53;;;-6.34;52.37
59829;BME280;45708;51.848;107.620;2023-01-28T05:14:21;94383.28;;;-6.36;52.69
59829;BME280;45708;51.848;107.620;2023-01-28T05:19:22;94391.53;;;-6.23;53.23
59829;BME280;45708;51.848;107.620;2023-01-28T05:24:22;94395.44;;;-5.70;53.01
59829;BME280;45708;51.848;107.620;2023-01-28T05:29:23;94358.50;;;-5.32;52.44
59829;BME280;45708;51.848;107.620;2023-01-28T05:34:24;94380.69;;;-4.57;52.07
59829;BME280;45708;51.848;107.620;2023-01-28T05:39:25;94384.25;;;-4.22;53.54
59829;BME280;45708;51.848;107.620;2023-01-28T05:44:26;94392.50;;;-4.01;54.10
59829;BME280;45708;51.848;107.620;2023-01-28T05:49:27;94398.72;;;-4.12;55.85
59829;BME280;45708;51.848;107.620;2023-01-28T05:54:28;94402.56;;;-3.98;55.66
59829;BME280;45708;51.848;107.620;2023-01-28T05:59:28;94410.94;;;-3.96;56.93
59829;BME280;45708;51.848;107.620;2023-01-28T06:04:29;94433.44;;;-4.34;60.72
59829;BME280;45708;51.848;107.620;2023-01-28T06:09:30;94428.06;;;-4.40;58.63
59829;BME280;45708;51.848;107.620;2023-01-28T06:14:31;94420.00;;;-4.55;58.08
59829;BME280;45708;51.848;107.620;2023-01-28T06:19:32;94426.53;;;-4.61;57.45
59829;BME280;45708;51.848;107.620;2023-01-28T06:24:32;94422.53;;;-4.73;70.73
59829;BME280;45708;51.848;107.620;2023-01-28T06:29:33;94446.66;;;-4.74;74.97
59829;BME280;45708;51.848;107.620;2023-01-28T06:34:34;94452.06;;;-4.67;65.44
59829;BME280;45708;51.848;107.620;2023-01-28T06:39:37;94460.09;;;-4.70;56.91
59829;BME280;45708;51.848;107.620;2023-01-28T06:44:38;94449.91;;;-4.72;56.70
59829;BME280;45708;51.848;107.620;2023-01-28T06:49:38;94463.91;;;-4.47;53.69
59829;BME280;45708;51.848;107.620;2023-01-28T06:54:39;94478.91;;;-4.60;53.32
59829;BME280;45708;51.848;107.620;2023-01-28T06:59:40;94476.22;;;-4.68;52.76
59829;BME280;45708;51.848;107.620;2023-01-28T07:04:41;94488.19;;;-4.86;52.59
59829;BME280;45708;51.848;107.620;2023-01-28T07:09:42;94490.38;;;-4.92;52.49
59829;BME280;45708;51.848;107.620;2023-01-28T07:14:42;94503.16;;;-5.00;52.94
59829;BME280;45708;51.848;107.620;2023-01-28T07:19:43;94507.75;;;-4.94;52.81
59829;BME280;45708;51.848;107.620;2023-01-28T07:24:44;94509.09;;;-4.90;53.35
59829;BME280;45708;51.848;107.620;2023-01-28T07:29:45;94517.78;;;-4.91;52.76
59829;BME280;45708;51.848;107.620;2023-01-28T07:34:46;94530.75;;;-4.82;52.54
59829;BME280;45708;51.848;107.620;2023-01-28T07:39:46;94534.50;;;-4.57;51.36
59829;BME280;45708;51.848;107.620;2023-01-28T07:44:47;94546.16;;;-4.63;52.04
59829;BME280;45708;51.848;107.620;2023-01-28T07:49:48;94553.47;;;-4.49;51.63
59829;BME280;45708;51.848;107.620;2023-01-28T07:54:49;94542.63;;;-4.62;52.44
59829;BME280;45708;51.848;107.620;2023-01-28T07:59:50;94556.22;;;-4.60;52.56
59829;BME280;45708;51.848;107.620;2023-01-28T08:04:51;94560.81;;;-4.54;52.64
59829;BME280;45708;51.848;107.620;2023-01-28T08:09:52;94578.75;;;-4.81;52.96
59829;BME280;45708;51.848;107.620;2023-01-28T08:14:52;94595.06;;;-5.10;53.20
59829;BME280;45708;51.848;107.620;2023-01-28T08:19:53;94583.69;;;-4.98;54.30
59829;BME280;45708;51.848;107.620;2023-01-28T08:24:54;94593.44;;;-5.21;54.02
59829;BME280;45708;51.848;107.620;2023-01-28T08:29:55;94615.38;;;-5.36;55.05
59829;BME280;45708;51.848;107.620;2023-01-28T08:34:56;94618.91;;;-5.37;55.56
59829;BME280;45708;51.848;107.620;2023-01-28T08:39:57;94637.03;;;-5.58;56.61
59829;BME280;45708;51.848;107.620;2023-01-28T08:44:57;94645.63;;;-5.78;56.54
59829;BME280;45708;51.848;107.620;2023-01-28T08:49:58;94651.72;;;-5.79;57.21
59829;BME280;45708;51.848;107.620;2023-01-28T08:54:59;94654.78;;;-5.85;57.35
59829;BME280;45708;51.848;107.620;2023-01-28T09:00:00;94649.25;;;-6.00;58.05
59829;BME280;45708;51.848;107.620;2023-01-28T09:05:01;94661.03;;;-5.88;58.74
59829;BME280;45708;51.848;107.620;2023-01-28T09:10:03;94669.81;;;-6.00;58.57
59829;BME280;45708;51.848;107.620;2023-01-28T09:15:05;94668.13;;;-6.10;58.70
59829;BME280;45708;51.848;107.620;2023-01-28T09:20:06;94679.75;;;-6.16;59.24
59829;BME280;45708;51.848;107.620;2023-01-28T09:25:08;94690.16;;;-6.18;60.00
59829;BME280;45708;51.848;107.620;2023-01-28T09:30:09;94694.16;;;-6.25;59.84
59829;BME280;45708;51.848;107.620;2023-01-28T09:35:10;94697.69;;;-6.26;60.54
59829;BME280;45708;51.848;107.620;2023-01-28T09:45:46;94706.59;;;-6.30;60.31
59829;BME280;45708;51.848;107.620;2023-01-28T09:50:50;94724.84;;;-6.33;61.42
59829;BME280;45708;51.848;107.620;2023-01-28T09:56:11;94720.44;;;-6.42;61.08
59829;BME280;45708;51.848;107.620;2023-01-28T10:12:12;94724.50;;;-6.60;61.74
59829;BME280;45708;51.848;107.620;2023-01-28T10:17:21;94715.47;;;-6.76;60.65
59829;BME280;45708;51.848;107.620;2023-01-28T10:22:32;94732.50;;;-6.75;60.76
59829;BME280;45708;51.848;107.620;2023-01-28T10:27:36;94726.00;;;-6.79;61.78
59829;BME280;45708;51.848;107.620;2023-01-28T10:32:42;94735.78;;;-6.84;61.28
59829;BME280;45708;51.848;107.620;2023-01-28T10:37:47;94743.03;;;-6.78;61.81
59829;BME280;45708;51.848;107.620;2023-01-28T10:42:48;94745.47;;;-6.76;61.65
59829;BME280;45708;51.848;107.620;2023-01-28T10:48:07;94756.56;;;-6.76;61.11
59829;BME280;45708;51.848;107.620;2023-01-28T10:53:12;94757.84;;;-6.81;62.52
59829;BME280;45708;51.848;107.620;2023-01-28T10:58:23;94769.19;;;-6.84;61.13
59829;BME280;45708;51.848;107.620;2023-01-28T11:03:24;94775.22;;;-6.73;62.48
59829;BME280;45708;51.848;107.620;2023-01-28T11:08:28;94773.34;;;-6.71;62.15
59829;BME280;45708;51.848;107.620;2023-01-28T11:13:29;94788.75;;;-6.71;62.24
59829;BME280;45708;51.848;107.620;2023-01-28T11:18:32;94789.25;;;-6.78;61.95
59829;BME280;45708;51.848;107.620;2023-01-28T11:24:01;94784.72;;;-6.85;62.00
59829;BME280;45708;51.848;107.620;2023-01-28T11:29:01;94773.88;;;-6.89;62.57
59829;BME280;45708;51.848;107.620;2023-01-28T11:34:04;94785.06;;;-6.90;62.47
59829;BME280;45708;51.848;107.620;2023-01-28T11:39:23;94784.50;;;-6.93;63.62
59829;BME280;45708;51.848;107.620;2023-01-28T11:44:26;94794.22;;;-6.97;63.81
59829;BME280;45708;51.848;107.620;2023-01-28T11:55:21;94779.06;;;-7.00;63.04
59829;BME280;45708;51.848;107.620;2023-01-28T12:01:20;94792.59;;;-6.98;63.16
59829;BME280;45708;51.848;107.620;2023-01-28T12:06:27;94797.72;;;-7.09;62.32
59829;BME280;45708;51.848;107.620;2023-01-28T12:12:02;94783.00;;;-7.07;63.13
59829;BME280;45708;51.848;107.620;2023-01-28T12:22:41;94766.97;;;-7.20;63.17
59829;BME280;45708;51.848;107.620;2023-01-28T12:44:30;94784.81;;;-7.63;63.97
59829;BME280;45708;51.848;107.620;2023-01-28T12:49:43;94786.34;;;-7.72;63.94
59829;BME280;45708;51.848;107.620;2023-01-28T13:00:34;94785.13;;;-8.02;63.44
59829;BME280;45708;51.848;107.620;2023-01-28T13:05:58;94786.78;;;-8.01;63.60
59829;BME280;45708;51.848;107.620;2023-01-28T13:11:01;94793.78;;;-7.91;63.43
59829;BME280;45708;51.848;107.620;2023-01-28T13:16:06;94799.59;;;-7.89;63.28
59829;BME280;45708;51.848;107.620;2023-01-28T13:21:28;94808.31;;;-8.03;63.64
59829;BME280;45708;51.848;107.620;2023-01-28T13:26:50;94789.78;;;-8.18;63.84
59829;BME280;45708;51.848;107.620;2023-01-28T13:31:53;94800.59;;;-8.14;64.01
59829;BME280;45708;51.848;107.620;2023-01-28T13:36:56;94800.22;;;-8.21;63.95
59829;BME280;45708;51.848;107.620;2023-01-28T13:42:18;94789.03;;;-8.31;63.83
59829;BME280;45708;51.848;107.620;2023-01-28T13:47:34;94779.81;;;-8.45;64.18
59829;BME280;45708;51.848;107.620;2023-01-28T13:53:35;94783.34;;;-8.70;64.52
59829;BME280;45708;51.848;107.620;2023-01-28T14:19:14;94798.56;;;-9.40;65.57
59829;BME280;45708;51.848;107.620;2023-01-28T14:24:16;94789.59;;;-9.58;65.27
59829;BME280;45708;51.848;107.620;2023-01-28T14:29:50;94796.06;;;-9.78;65.25
59829;BME280;45708;51.848;107.620;2023-01-28T14:34:59;94794.53;;;-9.93;66.44
59829;BME280;45708;51.848;107.620;2023-01-28T14:56:30;94805.09;;;-9.61;66.06
59829;BME280;45708;51.848;107.620;2023-01-28T15:01:33;94805.22;;;-9.63;66.10
59829;BME280;45708;51.848;107.620;2023-01-28T15:06:34;94811.06;;;-9.73;65.75
59829;BME280;45708;51.848;107.620;2023-01-28T15:11:39;94810.97;;;-9.85;66.47
59829;BME280;45708;51.848;107.620;2023-01-28T15:16:46;94815.28;;;-9.98;65.71
59829;BME280;45708;51.848;107.620;2023-01-28T15:21:47;94808.31;;;-10.21;66.68
59829;BME280;45708;51.848;107.620;2023-01-28T15:26:48;94790.88;;;-10.40;66.79
59829;BME280;45708;51.848;107.620;2023-01-28T15:31:49;94804.81;;;-10.46;66.98
59829;BME280;45708;51.848;107.620;2023-01-28T15:36:51;94797.97;;;-10.58;66.74
59829;BME280;45708;51.848;107.620;2023-01-28T15:42:03;94813.41;;;-10.86;65.71
59829;BME280;45708;51.848;107.620;2023-01-28T15:47:23;94826.28;;;-11.02;67.24
59829;BME280;45708;51.848;107.620;2023-01-28T15:52:38;94818.22;;;-11.09;66.99
59829;BME280;45708;51.848;107.620;2023-01-28T15:57:41;94835.53;;;-11.14;66.92
59829;BME280;45708;51.848;107.620;2023-01-28T16:02:49;94835.03;;;-11.33;66.31
59829;BME280;45708;51.848;107.620;2023-01-28T16:07:51;94834.66;;;-11.41;67.08
59829;BME280;45708;51.848;107.620;2023-01-28T16:12:57;94839.22;;;-11.46;67.66
59829;BME280;45708;51.848;107.620;2023-01-28T16:18:01;94839.78;;;-11.55;67.35
59829;BME280;45708;51.848;107.620;2023-01-28T16:23:20;94843.59;;;-11.48;67.21
59829;BME280;45708;51.848;107.620;2023-01-28T16:28:22;94842.16;;;-11.38;67.19
59829;BME280;45708;51.848;107.620;2023-01-28T16:33:23;94850.72;;;-11.39;67.91
59829;BME280;45708;51.848;107.620;2023-01-28T16:38:24;94844.59;;;-11.37;67.53
59829;BME280;45708;51.848;107.620;2023-01-28T16:43:25;94833.41;;;-11.34;67.28
59829;BME280;45708;51.848;107.620;2023-01-28T16:48:26;94833.91;;;-11.29;67.04
59829;BME280;45708;51.848;107.620;2023-01-28T16:53:30;94830.06;;;-11.22;67.40
59829;BME280;45708;51.848;107.620;2023-01-28T16:58:33;94836.97;;;-11.10;66.43
59829;BME280;45708;51.848;107.620;2023-01-28T17:03:33;94832.84;;;-10.98;66.77
59829;BME280;45708;51.848;107.620;2023-01-28T17:08:34;94831.13;;;-10.97;67.60
59829;BME280;45708;51.848;107.620;2023-01-28T17:13:35;94820.94;;;-10.97;66.40
59829;BME280;45708;51.848;107.620;2023-01-28T17:18:36;94818.88;;;-10.92;66.82
59829;BME280;45708;51.848;107.620;2023-01-28T17:23:38;94822.16;;;-10.90;67.75
59829;BME280;45708;51.848;107.620;2023-01-28T17:28:39;94814.50;;;-10.90;67.69
59829;BME280;45708;51.848;107.620;2023-01-28T17:33:40;94806.56;;;-10.86;67.57
59829;BME280;45708;51.848;107.620;2023-01-28T17:38:43;94813.34;;;-10.72;66.60
59829;BME280;45708;51.848;107.620;2023-01-28T17:43:52;94811.22;;;-10.65;66.91
59829;BME280;45708;51.848;107.620;2023-01-28T17:48:53;94805.13;;;-10.50;67.54
59829;BME280;45708;51.848;107.620;2023-01-28T17:53:54;94811.75;;;-10.48;67.97
59829;BME280;45708;51.848;107.620;2023-01-28T17:58:59;94810.53;;;-10.55;68.29
59829;BME280;45708;51.848;107.620;2023-01-28T18:04:00;94809.81;;;-10.57;67.68
59829;BME280;45708;51.848;107.620;2023-01-28T18:09:02;94802.84;;;-10.67;67.69
59829;BME280;45708;51.848;107.620;2023-01-28T18:14:03;94812.22;;;-10.81;68.19
59829;BME280;45708;51.848;107.620;2023-01-28T18:19:05;94790.13;;;-10.94;67.81
59829;BME280;45708;51.848;107.620;2023-01-28T18:24:07;94801.34;;;-10.97;68.82
59829;BME280;45708;51.848;107.620;2023-01-28T18:29:08;94790.44;;;-11.13;68.09
59829;BME280;45708;51.848;107.620;2023-01-28T18:34:08;94808.19;;;-11.12;69.51
59829;BME280;45708;51.848;107.620;2023-01-28T18:39:11;94808.81;;;-11.08;69.22
59829;BME280;45708;51.848;107.620;2023-01-28T18:44:14;94801.66;;;-11.16;69.26
59829;BME280;45708;51.848;107.620;2023-01-28T18:49:15;94806.25;;;-11.35;69.51
59829;BME280;45708;51.848;107.620;2023-01-28T18:54:15;94808.63;;;-11.46;68.79
59829;BME280;45708;51.848;107.620;2023-01-28T18:59:16;94819.22;;;-11.52;69.02
59829;BME280;45708;51.848;107.620;2023-01-28T19:04:17;94832.88;;;-11.53;69.63
59829;BME280;45708;51.848;107.620;2023-01-28T19:09:18;94816.03;;;-11.56;68.83
59829;BME280;45708;51.848;107.620;2023-01-28T19:14:19;94827.78;;;-11.53;68.62
59829;BME280;45708;51.848;107.620;2023-01-28T19:19:20;94823.50;;;-11.53;68.99
59829;BME280;45708;51.848;107.620;2023-01-28T19:24:21;94821.03;;;-11.54;69.93
59829;BME280;45708;51.848;107.620;2023-01-28T19:29:21;94825.22;;;-11.68;68.88
59829;BME280;45708;51.848;107.620;2023-01-28T19:34:22;94817.97;;;-11.74;70.14
59829;BME280;45708;51.848;107.620;2023-01-28T19:39:23;94820.69;;;-11.77;69.58
59829;BME280;45708;51.848;107.620;2023-01-28T19:44:24;94816.66;;;-11.67;69.23
59829;BME280;45708;51.848;107.620;2023-01-28T19:49:25;94817.50;;;-11.66;69.08
59829;BME280;45708;51.848;107.620;2023-01-28T19:54:26;94818.00;;;-11.47;69.79
59829;BME280;45708;51.848;107.620;2023-01-28T19:59:26;94815.03;;;-11.39;68.89
59829;BME280;45708;51.848;107.620;2023-01-28T20:04:27;94811.56;;;-11.38;68.73
59829;BME280;45708;51.848;107.620;2023-01-28T20:09:28;94816.47;;;-11.35;68.83
59829;BME280;45708;51.848;107.620;2023-01-28T20:14:29;94814.81;;;-11.36;69.16
59829;BME280;45708;51.848;107.620;2023-01-28T20:19:30;94819.53;;;-11.30;69.14
59829;BME280;45708;51.848;107.620;2023-01-28T20:24:30;94810.97;;;-11.29;69.56
59829;BME280;45708;51.848;107.620;2023-01-28T20:29:31;94810.09;;;-11.42;70.05
59829;BME280;45708;51.848;107.620;2023-01-28T20:34:32;94800.66;;;-11.54;69.70
59829;BME280;45708;51.848;107.620;2023-01-28T20:39:34;94812.47;;;-11.53;70.08
59829;BME280;45708;51.848;107.620;2023-01-28T20:44:35;94815.56;;;-11.48;70.08
59829;BME280;45708;51.848;107.620;2023-01-28T20:49:36;94797.09;;;-11.38;69.13
59829;BME280;45708;51.848;107.620;2023-01-28T20:54:37;94792.16;;;-11.41;68.97
59829;BME280;45708;51.848;107.620;2023-01-28T20:59:37;94789.53;;;-11.39;69.19
59829;BME280;45708;51.848;107.620;2023-01-28T21:04:38;94782.97;;;-11.43;69.62
59829;BME280;45708;51.848;107.620;2023-01-28T21:09:39;94774.69;;;-11.47;69.83
59829;BME280;45708;51.848;107.620;2023-01-28T21:14:40;94781.97;;;-11.41;70.11
59829;BME280;45708;51.848;107.620;2023-01-28T21:19:41;94771.31;;;-11.47;69.81
59829;BME280;45708;51.848;107.620;2023-01-28T21:24:44;94780.47;;;-11.57;70.33
59829;BME280;45708;51.848;107.620;2023-01-28T21:29:45;94784.50;;;-11.82;69.42
59829;BME280;45708;51.848;107.620;2023-01-28T21:34:46;94775.78;;;-12.06;69.92
59829;BME280;45708;51.848;107.620;2023-01-28T21:39:47;94779.16;;;-12.34;69.25
59829;BME280;45708;51.848;107.620;2023-01-28T21:44:48;94774.38;;;-12.54;70.37
59829;BME280;45708;51.848;107.620;2023-01-28T21:49:49;94775.00;;;-12.65;69.90
59829;BME280;45708;51.848;107.620;2023-01-28T21:54:50;94760.78;;;-12.83;69.76
59829;BME280;45708;51.848;107.620;2023-01-28T21:59:51;94770.34;;;-13.03;70.43
59829;BME280;45708;51.848;107.620;2023-01-28T22:04:52;94763.19;;;-13.26;69.92
59829;BME280;45708;51.848;107.620;2023-01-28T22:09:53;94764.88;;;-13.41;69.80
59829;BME280;45708;51.848;107.620;2023-01-28T22:14:53;94766.69;;;-13.59;69.95
59829;BME280;45708;51.848;107.620;2023-01-28T22:19:54;94767.97;;;-13.67;71.25
59829;BME280;45708;51.848;107.620;2023-01-28T22:24:55;94763.41;;;-13.76;70.24
59829;BME280;45708;51.848;107.620;2023-01-28T22:29:56;94760.34;;;-13.83;70.83
59829;BME280;45708;51.848;107.620;2023-01-28T22:34:57;94763.22;;;-13.89;69.81
59829;BME280;45708;51.848;107.620;2023-01-28T22:39:57;94770.59;;;-14.00;71.14
59829;BME280;45708;51.848;107.620;2023-01-28T22:44:58;94767.13;;;-14.15;70.15
59829;BME280;45708;51.848;107.620;2023-01-28T22:49:59;94783.78;;;-14.27;70.76
59829;BME280;45708;51.848;107.620;2023-01-28T22:55:00;94782.63;;;-14.37;71.02
59829;BME280;45708;51.848;107.620;2023-01-28T23:00:01;94782.44;;;-14.50;70.20
59829;BME280;45708;51.848;107.620;2023-01-28T23:05:01;94778.66;;;-14.58;70.85
59829;BME280;45708;51.848;107.620;2023-01-28T23:10:03;94779.34;;;-14.55;70.60
59829;BME280;45708;51.848;107.620;2023-01-28T23:15:04;94780.47;;;-14.60;70.38
59829;BME280;45708;51.848;107.620;2023-01-28T23:20:07;94778.81;;;-14.61;71.35
59829;BME280;45708;51.848;107.620;2023-01-28T23:25:08;94778.44;;;-14.71;69.96
59829;BME280;45708;51.848;107.620;2023-01-28T23:30:10;94794.78;;;-14.77;70.46
59829;BME280;45708;51.848;107.620;2023-01-28T23:35:12;94800.44;;;-14.89;71.72
59829;BME280;45708;51.848;107.620;2023-01-28T23:40:13;94800.91;;;-14.98;71.02
59829;BME280;45708;51.848;107.620;2023-01-28T23:45:14;94809.25;;;-14.96;70.39
59829;BME280;45708;51.848;107.620;2023-01-28T23:50:15;94822.97;;;-15.00;71.34
59829;BME280;45708;51.848;107.620;2023-01-28T23:55:16;94829.41;;;-15.12;70.10
